createdAt,value
2023-03-24T00:00:34.218Z,6.95
2023-03-24T00:03:02.784Z,6.63
2023-03-24T00:05:30.844Z,8.57
2023-03-24T00:08:02.074Z,10.30
2023-03-24T00:10:35.286Z,10.15
2023-03-24T00:13:03.389Z,9.40
2023-03-24T00:15:31.642Z,13.07
2023-03-24T00:17:59.241Z,8.55
2023-03-24T00:20:29.366Z,6.78
2023-03-24T00:22:58.807Z,10.02
2023-03-24T00:25:29.515Z,18.00
2023-03-24T00:27:57.989Z,15.48
2023-03-24T00:30:26.400Z,8.88
2023-03-24T00:32:54.429Z,16.08
2023-03-24T00:35:22.575Z,12.18
2023-03-24T00:37:52.040Z,17.40
2023-03-24T00:40:21.313Z,14.95
2023-03-24T00:42:50.240Z,14.55
2023-03-24T00:45:23.472Z,9.98
2023-03-24T00:47:54.638Z,17.33
2023-03-24T00:50:26.975Z,9.85
2023-03-24T00:52:56.176Z,11.25
2023-03-24T00:55:23.595Z,9.20
2023-03-24T00:57:51.524Z,12.32
2023-03-24T01:00:25.948Z,11.95
2023-03-24T01:02:56.122Z,11.70
2023-03-24T01:05:29.966Z,17.48
2023-03-24T01:08:04.100Z,17.58
2023-03-24T01:10:35.327Z,12.02
2023-03-24T01:13:04.078Z,17.80
2023-03-24T01:15:34.374Z,8.25
2023-03-24T01:18:02.716Z,14.32
2023-03-24T01:20:33.868Z,12.57
2023-03-24T01:23:03.264Z,14.70
2023-03-24T01:25:30.701Z,11.45
2023-03-24T01:27:58.105Z,10.90
2023-03-24T01:30:27.931Z,14.18
2023-03-24T01:32:55.812Z,12.30
2023-03-24T01:35:27.725Z,16.75
2023-03-24T01:37:57.181Z,15.23
2023-03-24T01:40:28.448Z,13.50
2023-03-24T01:42:56.770Z,13.27
2023-03-24T01:45:41.809Z,13.65
2023-03-24T01:48:27.550Z,13.70
2023-03-24T01:51:03.638Z,8.90
2023-03-24T01:53:33.947Z,11.23
2023-03-24T01:56:03.357Z,16.40
2023-03-24T01:58:38.001Z,16.83
2023-03-24T02:01:30.011Z,14.07
2023-03-24T02:04:07.532Z,17.88
2023-03-24T02:06:41.347Z,33.72
2023-03-24T02:09:09.896Z,17.45
2023-03-24T02:11:38.474Z,16.23
2023-03-24T02:14:07.463Z,10.85
2023-03-24T02:16:53.313Z,18.38
2023-03-24T02:19:38.553Z,12.82
2023-03-24T02:22:49.325Z,15.85
2023-03-24T02:25:25.817Z,11.98
2023-03-24T02:28:23.026Z,12.15
2023-03-24T02:31:12.058Z,17.13
2023-03-24T02:34:06.811Z,15.13
2023-03-24T02:37:12.796Z,12.73
2023-03-24T02:40:08.201Z,16.30
2023-03-24T02:43:02.893Z,12.85
2023-03-24T02:45:41.332Z,16.15
2023-03-24T02:48:23.904Z,10.52
2023-03-24T02:53:52.166Z,18.23
2023-03-24T02:56:54.411Z,13.52
2023-03-24T03:00:09.652Z,14.75
2023-03-24T03:03:28.225Z,19.42
2023-03-24T03:06:09.208Z,14.20
2023-03-24T03:08:39.071Z,15.85
2023-03-24T03:11:12.223Z,15.48
2023-03-24T03:13:44.582Z,33.72
2023-03-24T03:16:27.380Z,16.88
2023-03-24T03:19:03.571Z,16.08
2023-03-24T03:21:39.740Z,19.10
2023-03-24T03:24:11.349Z,13.93
2023-03-24T03:26:39.956Z,13.68
2023-03-24T03:29:16.798Z,12.93
2023-03-24T03:31:53.249Z,13.18
2023-03-24T03:34:32.275Z,11.23
2023-03-24T03:37:22.414Z,7.53
2023-03-24T03:39:58.123Z,12.45
2023-03-24T03:42:25.793Z,18.38
2023-03-24T03:44:54.053Z,14.63
2023-03-24T03:47:23.123Z,13.38
2023-03-24T03:49:51.461Z,14.57
2023-03-24T03:52:19.085Z,14.43
2023-03-24T03:54:48.652Z,16.65
2023-03-24T03:57:16.385Z,19.33
2023-03-24T04:00:15.879Z,15.63
2023-03-24T04:02:55.043Z,18.55
2023-03-24T04:05:48.698Z,26.65
2023-03-24T04:08:49.249Z,19.05
2023-03-24T04:11:27.698Z,21.15
2023-03-24T04:15:10.436Z,14.27
2023-03-24T04:18:35.894Z,15.15
2023-03-24T04:21:33.774Z,16.83
2023-03-24T04:24:16.106Z,26.45
2023-03-24T04:27:11.483Z,14.73
2023-03-24T04:29:53.823Z,23.58
2023-03-24T04:32:49.508Z,19.00
2023-03-24T04:35:42.419Z,22.90
2023-03-24T04:38:28.388Z,17.08
2023-03-24T04:41:19.802Z,18.65
2023-03-24T04:43:58.043Z,17.73
2023-03-24T04:46:25.992Z,17.08
2023-03-24T04:48:57.962Z,21.85
2023-03-24T04:54:17.576Z,16.70
2023-03-24T04:56:55.337Z,25.55
2023-03-24T04:59:24.739Z,17.63
2023-03-24T05:01:52.076Z,21.95
2023-03-24T05:04:37.496Z,13.40
2023-03-24T05:07:21.473Z,18.60
2023-03-24T05:09:52.412Z,16.02
2023-03-24T05:12:19.737Z,24.60
2023-03-24T05:15:06.992Z,22.20
2023-03-24T05:17:35.733Z,14.68
2023-03-24T05:20:07.914Z,17.40
2023-03-24T05:22:37.860Z,14.35
2023-03-24T05:25:06.083Z,20.95
2023-03-24T05:27:33.359Z,24.95
2023-03-24T05:30:11.594Z,23.02
2023-03-24T05:32:39.144Z,20.42
2023-03-24T05:35:07.168Z,22.67
2023-03-24T05:37:34.674Z,21.65
2023-03-24T05:40:03.285Z,17.08
2023-03-24T05:42:51.114Z,28.30
2023-03-24T05:45:19.710Z,23.17
2023-03-24T05:47:47.459Z,20.13
2023-03-24T05:50:16.988Z,29.10
2023-03-24T05:52:45.647Z,17.17
2023-03-24T05:55:33.136Z,29.48
2023-03-24T05:58:10.016Z,15.35
2023-03-24T06:00:49.956Z,22.15
2023-03-24T06:03:34.733Z,24.15
2023-03-24T06:06:09.979Z,12.73
2023-03-24T06:08:38.380Z,19.50
2023-03-24T06:11:05.805Z,30.27
2023-03-24T06:13:40.120Z,21.05
2023-03-24T06:16:09.977Z,21.33
2023-03-24T06:18:52.819Z,20.10
2023-03-24T06:21:40.168Z,23.00
2023-03-24T06:24:07.900Z,18.77
2023-03-24T06:26:36.482Z,19.35
2023-03-24T06:29:04.763Z,15.27
2023-03-24T06:31:37.474Z,28.35
2023-03-24T06:34:05.784Z,19.05
2023-03-24T06:36:34.926Z,26.50
2023-03-24T06:39:05.834Z,22.75
2023-03-24T06:41:33.224Z,19.20
2023-03-24T06:44:02.121Z,14.15
2023-03-24T06:46:30.048Z,20.70
2023-03-24T06:48:57.351Z,18.73
2023-03-24T06:51:24.932Z,12.60
2023-03-24T06:53:52.318Z,21.90
2023-03-24T06:56:21.969Z,23.77
2023-03-24T07:01:38.729Z,19.60
2023-03-24T07:04:17.978Z,20.40
2023-03-24T07:07:06.646Z,22.00
2023-03-24T07:09:42.807Z,22.80
2023-03-24T07:12:13.958Z,20.23
2023-03-24T07:14:42.227Z,22.20
2023-03-24T07:17:09.724Z,18.60
2023-03-24T07:20:19.201Z,23.73
2023-03-24T07:23:13.096Z,16.90
2023-03-24T07:25:43.334Z,18.00
2023-03-24T07:28:30.866Z,18.20
2023-03-24T07:31:01.936Z,20.85
2023-03-24T07:33:46.500Z,18.88
2023-03-24T07:36:14.896Z,15.00
2023-03-24T07:38:42.240Z,18.55
2023-03-24T07:43:51.940Z,16.15
2023-03-24T07:46:24.957Z,20.67
2023-03-24T07:48:52.479Z,23.90
2023-03-24T07:51:20.857Z,21.55
2023-03-24T07:53:48.609Z,15.93
2023-03-24T07:56:26.495Z,20.63
2023-03-24T07:58:57.472Z,19.13
2023-03-24T08:01:30.959Z,14.15
2023-03-24T08:04:01.410Z,18.25
2023-03-24T08:06:47.295Z,13.25
2023-03-24T08:09:14.826Z,19.65
2023-03-24T08:11:41.987Z,18.55
2023-03-24T08:14:09.291Z,12.60
2023-03-24T08:16:39.223Z,19.63
2023-03-24T08:19:06.710Z,13.32
2023-03-24T08:21:34.039Z,12.98
2023-03-24T08:24:04.385Z,10.85
2023-03-24T08:26:35.653Z,22.73
2023-03-24T08:29:03.282Z,10.70
2023-03-24T08:31:37.656Z,9.02
2023-03-24T08:34:06.679Z,15.65
2023-03-24T08:36:34.037Z,11.02
2023-03-24T08:39:01.541Z,15.82
2023-03-24T08:41:35.289Z,13.68
2023-03-24T08:44:07.379Z,16.30
2023-03-24T08:46:35.055Z,15.35
2023-03-24T08:49:03.475Z,15.55
2023-03-24T08:51:31.746Z,22.00
2023-03-24T08:53:59.596Z,16.73
2023-03-24T08:56:26.818Z,13.38
2023-03-24T08:58:54.315Z,20.27
2023-03-24T09:01:23.108Z,23.67
2023-03-24T09:03:50.862Z,13.27
2023-03-24T09:06:18.116Z,18.63
2023-03-24T09:08:46.357Z,13.35
2023-03-24T09:11:19.774Z,13.13
2023-03-24T09:13:48.165Z,22.52
2023-03-24T09:16:16.958Z,14.43
2023-03-24T09:18:45.263Z,14.30
2023-03-24T09:21:12.749Z,15.95
2023-03-24T09:23:40.159Z,17.17
2023-03-24T09:26:07.592Z,16.48
2023-03-24T09:28:35.436Z,19.90
2023-03-24T09:31:05.563Z,15.85
2023-03-24T09:33:34.936Z,11.90
2023-03-24T09:36:05.603Z,10.90
2023-03-24T09:38:35.063Z,13.88
2023-03-24T09:41:03.732Z,13.55
2023-03-24T09:43:44.180Z,15.00
2023-03-24T09:46:41.610Z,16.13
2023-03-24T09:49:14.531Z,14.85
2023-03-24T09:51:44.768Z,14.18
2023-03-24T09:54:18.990Z,11.10
2023-03-24T09:56:49.369Z,12.90
2023-03-24T09:59:21.336Z,12.15
2023-03-24T10:01:49.593Z,13.52
2023-03-24T10:04:24.350Z,8.88
2023-03-24T10:07:03.982Z,15.60
2023-03-24T10:09:33.743Z,12.82
2023-03-24T10:12:39.854Z,12.10
2023-03-24T10:15:13.612Z,13.00
2023-03-24T10:18:02.353Z,9.02
2023-03-24T10:20:44.627Z,9.73
2023-03-24T10:23:32.970Z,14.45
2023-03-24T10:26:18.309Z,14.23
2023-03-24T10:28:52.597Z,17.25
2023-03-24T10:31:28.298Z,10.45
2023-03-24T10:33:56.023Z,9.88
2023-03-24T10:36:25.205Z,5.07
2023-03-24T10:38:52.514Z,6.15
2023-03-24T10:41:22.629Z,9.52
2023-03-24T10:43:53.026Z,8.73
2023-03-24T10:46:30.472Z,8.95
2023-03-24T10:49:19.947Z,11.88
2023-03-24T10:51:54.195Z,11.80
2023-03-24T10:54:26.546Z,17.00
2023-03-24T10:57:03.855Z,8.70
2023-03-24T10:59:59.318Z,12.32
2023-03-24T11:02:33.882Z,12.55
2023-03-24T11:05:13.667Z,13.38
2023-03-24T11:07:44.630Z,16.02
2023-03-24T11:10:13.714Z,7.35
2023-03-24T11:12:54.617Z,11.55
2023-03-24T11:15:30.812Z,13.27
2023-03-24T11:18:14.242Z,6.70
2023-03-24T11:21:04.425Z,11.38
2023-03-24T11:23:32.136Z,11.85
2023-03-24T11:26:25.046Z,9.65
2023-03-24T11:28:56.706Z,6.72
2023-03-24T11:31:38.314Z,4.30
2023-03-24T11:34:10.791Z,9.27
2023-03-24T11:36:49.807Z,6.65
2023-03-24T11:39:24.774Z,10.23
2023-03-24T11:41:53.824Z,8.18
2023-03-24T11:44:23.316Z,9.07
2023-03-24T11:47:00.235Z,12.00
2023-03-24T11:49:31.940Z,9.60
2023-03-24T11:51:59.441Z,9.55
2023-03-24T11:54:36.916Z,7.13
2023-03-24T11:57:09.736Z,11.80
2023-03-24T11:59:51.333Z,8.43
2023-03-24T12:02:33.804Z,6.30
2023-03-24T12:08:18.195Z,6.70
2023-03-24T12:11:20.842Z,3.72
2023-03-24T12:16:47.068Z,12.02
2023-03-24T12:19:57.234Z,6.60
2023-03-24T12:22:39.539Z,10.73
2023-03-24T12:25:25.850Z,13.32
2023-03-24T12:28:03.217Z,13.02
2023-03-24T12:30:56.406Z,8.43
2023-03-24T12:33:45.946Z,11.32
2023-03-24T12:36:19.610Z,9.18
2023-03-24T12:39:02.279Z,10.15
2023-03-24T12:41:41.776Z,9.05
2023-03-24T12:44:21.165Z,13.88
2023-03-24T12:46:49.454Z,12.80
2023-03-24T12:49:37.876Z,11.45
2023-03-24T12:52:17.937Z,7.07
2023-03-24T12:54:47.990Z,14.20
2023-03-24T12:57:18.709Z,9.88
2023-03-24T12:59:59.553Z,10.15
2023-03-24T13:02:38.367Z,8.90
2023-03-24T13:05:21.244Z,8.52
2023-03-24T13:07:54.321Z,12.00
2023-03-24T13:10:29.744Z,11.35
2023-03-24T13:13:20.661Z,9.77
2023-03-24T13:16:13.058Z,7.68
2023-03-24T13:18:46.333Z,6.93
2023-03-24T13:21:19.586Z,4.20
2023-03-24T13:24:04.314Z,4.53
2023-03-24T13:26:41.629Z,4.75
2023-03-24T13:29:49.072Z,10.60
2023-03-24T13:32:23.954Z,9.95
2023-03-24T13:35:22.039Z,8.90
2023-03-24T13:37:58.165Z,6.82
2023-03-24T13:40:28.778Z,11.65
2023-03-24T13:42:58.339Z,14.25
2023-03-24T13:45:34.385Z,11.48
2023-03-24T13:48:11.002Z,17.77
2023-03-24T13:50:43.194Z,8.05
2023-03-24T13:53:16.141Z,12.82
2023-03-24T13:55:52.463Z,14.95
2023-03-24T13:58:27.998Z,9.35
2023-03-24T14:01:18.367Z,8.38
2023-03-24T14:04:07.152Z,13.50
2023-03-24T14:06:48.480Z,11.65
2023-03-24T14:09:22.058Z,11.63
2023-03-24T14:12:16.790Z,8.82
2023-03-24T14:15:12.088Z,8.57
2023-03-24T14:17:48.937Z,8.88
2023-03-24T14:20:36.215Z,10.25
2023-03-24T14:23:04.673Z,5.82
2023-03-24T14:25:33.713Z,8.20
2023-03-24T14:28:29.997Z,5.40
2023-03-24T14:31:02.247Z,7.88
2023-03-24T14:36:05.006Z,12.77
2023-03-24T14:38:42.250Z,10.68
2023-03-24T14:41:16.467Z,12.27
2023-03-24T14:43:44.355Z,7.38
2023-03-24T14:46:40.502Z,8.63
2023-03-24T14:49:29.218Z,6.97
2023-03-24T14:52:13.017Z,8.25
2023-03-24T14:54:51.481Z,11.73
2023-03-24T14:57:28.694Z,10.32
2023-03-24T15:00:15.886Z,10.30
2023-03-24T15:02:48.348Z,8.40
2023-03-24T15:08:27.949Z,12.05
2023-03-24T15:11:07.414Z,15.43
2023-03-24T15:13:37.905Z,9.93
2023-03-24T15:16:17.815Z,7.60
2023-03-24T15:19:05.459Z,12.43
2023-03-24T15:21:41.241Z,13.52
2023-03-24T15:24:27.710Z,11.95
2023-03-24T15:27:10.170Z,10.30
2023-03-24T15:29:41.182Z,10.25
2023-03-24T15:32:17.718Z,14.57
2023-03-24T15:35:06.074Z,10.70
2023-03-24T15:37:41.389Z,5.95
2023-03-24T15:40:27.549Z,10.52
2023-03-24T15:42:57.684Z,7.72
2023-03-24T15:45:33.944Z,18.75
2023-03-24T15:48:17.337Z,10.95
2023-03-24T15:51:05.784Z,9.13
2023-03-24T15:53:44.515Z,11.63
2023-03-24T15:56:34.366Z,12.90
2023-03-24T15:59:13.576Z,9.65
2023-03-24T16:01:44.885Z,11.90
2023-03-24T16:04:16.515Z,12.05
2023-03-24T16:06:52.906Z,10.55
2023-03-24T16:09:22.481Z,12.68
2023-03-24T16:11:50.355Z,10.73
2023-03-24T16:14:29.614Z,9.65
2023-03-24T16:16:58.976Z,12.77
2023-03-24T16:19:26.665Z,12.25
2023-03-24T16:21:54.983Z,8.63
2023-03-24T16:24:28.313Z,14.27
2023-03-24T16:26:55.766Z,10.20
2023-03-24T16:29:24.121Z,12.13
2023-03-24T16:31:53.457Z,12.57
2023-03-24T16:34:22.452Z,10.18
2023-03-24T16:36:52.042Z,12.90
2023-03-24T16:39:22.146Z,16.15
2023-03-24T16:41:49.958Z,8.30
2023-03-24T16:44:17.600Z,14.23
2023-03-24T16:46:46.886Z,12.40
2023-03-24T16:49:16.688Z,16.60
2023-03-24T16:51:44.622Z,12.13
2023-03-24T16:54:11.824Z,11.48
2023-03-24T16:56:39.537Z,13.00
2023-03-24T16:59:07.234Z,15.48
2023-03-24T17:01:44.452Z,14.80
2023-03-24T17:04:13.495Z,11.90
2023-03-24T17:06:49.141Z,16.25
2023-03-24T17:09:17.583Z,16.33
2023-03-24T17:11:51.456Z,12.27
2023-03-24T17:14:18.964Z,15.18
2023-03-24T17:16:49.351Z,9.80
2023-03-24T17:19:19.120Z,10.73
2023-03-24T17:21:59.748Z,19.67
2023-03-24T17:24:28.404Z,12.48
2023-03-24T17:26:56.124Z,13.45
2023-03-24T17:29:23.736Z,9.45
2023-03-24T17:31:51.133Z,2.80
2023-03-24T17:34:21.961Z,2.65
2023-03-24T17:36:51.812Z,1.87
2023-03-24T17:39:20.289Z,1.45
2023-03-24T17:41:47.771Z,1.50
2023-03-24T17:44:15.111Z,2.63
2023-03-24T17:46:42.277Z,2.30
2023-03-24T17:49:09.508Z,6.15
2023-03-24T17:51:36.773Z,1.98
2023-03-24T17:54:04.357Z,2.95
2023-03-24T17:56:32.199Z,4.35
2023-03-24T17:58:59.467Z,3.35
2023-03-24T18:01:29.697Z,5.63
2023-03-24T18:03:58.092Z,3.25
2023-03-24T18:06:27.734Z,1.20
2023-03-24T18:08:55.947Z,1.75
2023-03-24T18:11:24.318Z,3.88
2023-03-24T18:13:52.397Z,5.38
2023-03-24T18:16:21.855Z,5.00
2023-03-24T18:18:50.754Z,5.10
2023-03-24T18:21:18.728Z,4.10
2023-03-24T18:23:47.035Z,2.00
2023-03-24T18:26:16.809Z,3.85
2023-03-24T18:28:46.063Z,3.70
2023-03-24T18:31:16.162Z,2.58
2023-03-24T18:33:46.101Z,6.38
2023-03-24T18:36:26.613Z,3.42
2023-03-24T18:39:07.116Z,1.48
2023-03-24T18:41:37.405Z,4.50
2023-03-24T18:44:08.284Z,1.17
2023-03-24T18:46:36.999Z,3.00
2023-03-24T18:49:04.708Z,2.72
2023-03-24T18:51:33.166Z,1.38
2023-03-24T18:54:00.480Z,1.75
2023-03-24T18:56:28.233Z,4.45
2023-03-24T18:58:55.736Z,7.15
2023-03-24T19:01:23.244Z,5.07
2023-03-24T19:03:52.053Z,14.98
2023-03-24T19:06:19.862Z,6.53
2023-03-24T19:08:51.744Z,12.75
2023-03-24T19:11:19.433Z,14.23
2023-03-24T19:13:49.895Z,37.00
2023-03-24T19:16:19.518Z,23.38
2023-03-24T19:18:48.622Z,17.50
2023-03-24T19:21:16.956Z,14.95
2023-03-24T19:23:47.151Z,21.52
2023-03-24T19:26:19.719Z,11.80
2023-03-24T19:28:50.369Z,40.15
2023-03-24T19:31:19.718Z,75.35
2023-03-24T19:33:52.251Z,20.67
2023-03-24T19:36:29.197Z,13.27
2023-03-24T19:38:57.068Z,13.65
2023-03-24T19:41:26.455Z,8.52
2023-03-24T19:43:54.192Z,11.30
2023-03-24T19:46:22.215Z,17.63
2023-03-24T19:48:52.962Z,11.98
2023-03-24T19:51:21.446Z,16.80
2023-03-24T19:53:48.706Z,14.07
2023-03-24T19:56:17.864Z,13.13
2023-03-24T19:58:45.339Z,17.60
2023-03-24T20:01:13.087Z,11.45
2023-03-24T20:03:41.132Z,14.68
2023-03-24T20:06:10.237Z,20.25
2023-03-24T20:08:38.892Z,17.35
2023-03-24T20:11:12.832Z,22.05
2023-03-24T20:13:42.633Z,15.25
2023-03-24T20:16:10.680Z,18.92
2023-03-24T20:18:41.424Z,22.83
2023-03-24T20:21:11.596Z,29.27
2023-03-24T20:23:41.972Z,20.23
2023-03-24T20:26:10.050Z,16.02
2023-03-24T20:28:37.945Z,18.95
2023-03-24T20:31:06.513Z,17.00
2023-03-24T20:33:34.462Z,20.23
2023-03-24T20:36:02.656Z,16.95
2023-03-24T20:38:31.007Z,15.63
2023-03-24T20:41:08.105Z,20.40
2023-03-24T20:43:37.292Z,18.48
2023-03-24T20:46:07.307Z,20.40
2023-03-24T20:48:34.926Z,20.08
2023-03-24T20:51:03.594Z,18.33
2023-03-24T20:53:33.037Z,25.63
2023-03-24T20:56:04.246Z,16.40
2023-03-24T20:58:32.554Z,26.95
2023-03-24T21:01:00.275Z,14.65
2023-03-24T21:03:27.486Z,15.07
2023-03-24T21:05:54.722Z,13.70
2023-03-24T21:08:22.003Z,19.40
2023-03-24T21:10:49.275Z,20.63
2023-03-24T21:13:17.031Z,16.58
2023-03-24T21:15:45.218Z,16.23
2023-03-24T21:18:12.608Z,21.27
2023-03-24T21:20:40.214Z,14.90
2023-03-24T21:23:09.644Z,20.30
2023-03-24T21:25:37.763Z,17.67
2023-03-24T21:28:05.097Z,16.70
2023-03-24T21:30:32.423Z,18.55
2023-03-24T21:33:00.953Z,19.92
2023-03-24T21:35:31.493Z,17.98
2023-03-24T21:37:59.088Z,16.42
2023-03-24T21:40:34.239Z,15.18
2023-03-24T21:43:06.819Z,19.65
2023-03-24T21:45:36.885Z,15.48
2023-03-24T21:48:05.967Z,15.15
2023-03-24T21:50:39.086Z,16.45
2023-03-24T21:53:15.050Z,20.05
2023-03-24T21:55:52.910Z,16.25
2023-03-24T21:58:20.636Z,18.88
2023-03-24T22:00:49.590Z,18.77
2023-03-24T22:03:17.376Z,14.55
2023-03-24T22:05:44.958Z,15.27
2023-03-24T22:08:12.468Z,21.30
2023-03-24T22:10:43.246Z,16.23
2023-03-24T22:13:10.636Z,14.10
2023-03-24T22:15:38.167Z,19.48
2023-03-24T22:18:05.569Z,25.10
2023-03-24T22:20:33.506Z,25.35
2023-03-24T22:23:03.593Z,18.83
2023-03-24T22:25:31.441Z,15.80
2023-03-24T22:27:58.692Z,14.07
2023-03-24T22:30:26.215Z,29.55
2023-03-24T22:32:53.431Z,18.48
2023-03-24T22:35:21.446Z,17.75
2023-03-24T22:37:48.822Z,17.48
2023-03-24T22:40:16.265Z,14.43
2023-03-24T22:42:43.481Z,15.57
2023-03-24T22:45:11.185Z,13.32
2023-03-24T22:47:38.609Z,14.93
2023-03-24T22:50:08.578Z,16.45
2023-03-24T22:52:36.193Z,22.48
2023-03-24T22:55:03.435Z,29.85
2023-03-24T22:57:30.613Z,23.65
2023-03-24T23:00:01.995Z,19.55
2023-03-24T23:02:29.671Z,26.25
2023-03-24T23:04:57.515Z,36.13
2023-03-24T23:07:28.267Z,27.85
2023-03-24T23:09:59.479Z,52.80
2023-03-24T23:12:27.163Z,25.90
2023-03-24T23:14:54.562Z,13.10
2023-03-24T23:17:24.277Z,17.98
2023-03-24T23:19:52.589Z,15.32
2023-03-24T23:22:21.235Z,10.98
2023-03-24T23:24:48.928Z,8.20
2023-03-24T23:27:16.359Z,8.93
2023-03-24T23:29:43.842Z,15.07
2023-03-24T23:32:11.522Z,10.10
2023-03-24T23:34:42.684Z,11.18
2023-03-24T23:37:10.318Z,11.18
2023-03-24T23:39:37.490Z,10.15
2023-03-24T23:42:05.372Z,10.95
2023-03-24T23:44:32.886Z,11.05
2023-03-24T23:47:02.778Z,20.23
2023-03-24T23:49:30.099Z,9.25
2023-03-24T23:51:57.669Z,8.40
2023-03-24T23:54:25.703Z,8.32
2023-03-24T23:56:53.950Z,8.25
2023-03-24T23:59:21.561Z,12.13
